Time;durP1;ratioP1;P1;durP2;ratioP2;P2;SDS_P1;SDS_P2;PMS_P1;PMS_P2;Temp;Humidity;BMP_temperature;BMP_pressure;BME280_temperature;BME280_humidity;BME280_pressure;Samples;Min_cycle;Max_cycle;Signal;HPM_P1;HPM_P2
2024/04/12 00:01:42;;;;;;;14.82;7.90;;;13.20;99.90;;;;;;5487838;26;20013;-73
2024/04/12 00:04:17;;;;;;;13.13;7.07;;;13.20;99.90;;;;;;5485193;26;20005;-73
2024/04/12 00:06:49;;;;;;;16.00;9.85;;;13.20;99.90;;;;;;5488093;26;20343;-73
2024/04/12 00:09:20;;;;;;;18.08;8.77;;;13.20;99.90;;;;;;5488316;26;19995;-73
2024/04/12 00:11:49;;;;;;;17.88;10.38;;;13.20;99.90;;;;;;5488216;26;20424;-73
2024/04/12 00:14:17;;;;;;;18.35;8.73;;;13.30;99.90;;;;;;5485868;26;20466;-73
2024/04/12 00:16:50;;;;;;;10.82;6.75;;;13.30;99.90;;;;;;5489240;26;20010;-73
2024/04/12 00:19:22;;;;;;;11.38;7.07;;;13.30;99.90;;;;;;5489731;26;20066;-73
2024/04/12 00:21:52;;;;;;;14.90;10.95;;;13.30;99.90;;;;;;5489208;26;20012;-73
2024/04/12 00:24:24;;;;;;;;;;;13.30;99.90;;;;;;5457866;26;20070;-73
2024/04/12 00:26:53;;;;;;;12.35;7.97;;;13.30;99.90;;;;;;5457265;26;19931;-73
2024/04/12 00:29:31;;;;;;;13.13;8.77;;;13.30;99.90;;;;;;5487826;26;19998;-73
2024/04/12 00:32:05;;;;;;;14.68;9.85;;;13.30;99.90;;;;;;5487231;26;20010;-73
2024/04/12 00:34:38;;;;;;;9.23;6.95;;;13.30;99.90;;;;;;5487492;26;20002;-73
2024/04/12 00:37:07;;;;;;;15.40;11.38;;;13.30;99.90;;;;;;5487530;26;20555;-73
2024/04/12 00:39:41;;;;;;;16.63;10.20;;;13.30;99.90;;;;;;5487075;26;20045;-73
2024/04/12 00:42:09;;;;;;;21.60;10.75;;;13.40;99.90;;;;;;5457576;26;20066;-73
2024/04/12 00:44:39;;;;;;;15.27;10.48;;;13.40;99.90;;;;;;5489151;26;19997;-73
2024/04/12 00:47:15;;;;;;;20.23;10.25;;;13.40;99.90;;;;;;5489247;26;19994;-73
2024/04/12 00:49:50;;;;;;;23.00;11.80;;;13.40;99.90;;;;;;5489514;26;19998;-73
2024/04/12 00:52:22;;;;;;;12.38;6.88;;;13.40;99.90;;;;;;5487348;26;19997;-73
2024/04/12 00:54:56;;;;;;;14.35;8.73;;;13.40;99.90;;;;;;5488652;26;20005;-73
2024/04/12 00:57:24;;;;;;;20.92;14.50;;;13.40;99.90;;;;;;5489107;26;20021;-73
2024/04/12 00:59:51;;;;;;;19.27;10.73;;;13.40;99.90;;;;;;5427227;26;20137;-73
2024/04/12 01:02:21;;;;;;;24.40;12.85;;;13.30;99.90;;;;;;5488614;26;19998;-73
2024/04/12 01:04:49;;;;;;;20.60;13.43;;;13.40;99.90;;;;;;5457534;26;19998;-73
2024/04/12 01:07:18;;;;;;;16.27;8.57;;;13.40;99.90;;;;;;5488630;26;20009;-73
2024/04/12 01:09:45;;;;;;;23.77;12.77;;;13.40;99.90;;;;;;5487005;26;19998;-73
2024/04/12 01:12:18;;;;;;;25.55;13.50;;;13.50;99.90;;;;;;5488314;26;19998;-73
2024/04/12 01:14:46;;;;;;;17.85;10.80;;;13.50;99.90;;;;;;5458523;26;19994;-73
2024/04/12 01:17:13;;;;;;;22.58;12.60;;;13.50;99.90;;;;;;5488314;26;20444;-73
2024/04/12 01:19:40;;;;;;;30.63;15.38;;;13.50;99.90;;;;;;5488531;26;20002;-73
2024/04/12 01:22:08;;;;;;;31.20;17.23;;;13.60;99.90;;;;;;5488208;26;20087;-73
2024/04/12 01:24:39;;;;;;;20.42;11.50;;;13.60;99.90;;;;;;5457722;26;20449;-73
2024/04/12 01:27:06;;;;;;;31.15;13.15;;;13.60;99.90;;;;;;5490227;26;20002;-73
2024/04/12 01:29:33;;;;;;;27.20;14.60;;;13.70;99.90;;;;;;5491867;26;20014;-73
2024/04/12 01:32:04;;;;;;;25.27;14.00;;;13.70;99.90;;;;;;5491909;26;20446;-73
2024/04/12 01:34:31;;;;;;;27.50;16.23;;;13.70;99.90;;;;;;5489910;26;19994;-73
2024/04/12 01:37:03;;;;;;;30.83;14.52;;;13.70;99.90;;;;;;5489662;26;20018;-73
2024/04/12 01:39:33;;;;;;;24.95;13.80;;;13.70;99.90;;;;;;5491787;26;20010;-73
2024/04/12 01:42:04;;;;;;;18.60;12.40;;;13.70;99.90;;;;;;5491140;26;20134;-73
2024/04/12 01:44:31;;;;;;;22.77;14.52;;;13.70;99.90;;;;;;5491861;26;20464;-73
2024/04/12 01:46:58;;;;;;;22.38;12.70;;;13.70;99.90;;;;;;5489518;26;20006;-73
2024/04/12 01:49:25;;;;;;;23.98;15.00;;;13.70;99.90;;;;;;5491784;26;19998;-73
2024/04/12 01:51:55;;;;;;;28.20;16.67;;;13.70;99.90;;;;;;5489673;26;20009;-73
2024/04/12 01:54:23;;;;;;;24.35;15.20;;;13.70;99.90;;;;;;5492023;26;20324;-73
2024/04/12 01:56:50;;;;;;;34.97;21.08;;;13.80;99.90;;;;;;5491719;26;20006;-73
2024/04/12 01:59:21;;;;;;;25.55;15.68;;;13.80;99.90;;;;;;5489883;26;20071;-73
2024/04/12 02:01:49;;;;;;;22.52;17.00;;;13.80;99.90;;;;;;5489925;26;20069;-73
2024/04/12 02:04:18;;;;;;;25.02;14.68;;;13.80;99.90;;;;;;5459530;26;19994;-73
2024/04/12 02:06:47;;;;;;;26.02;17.58;;;13.80;99.90;;;;;;5491471;26;20005;-73
2024/04/12 02:09:16;;;;;;;28.85;19.85;;;13.80;99.90;;;;;;5489451;26;20012;-73
2024/04/12 02:11:47;;;;;;;19.25;14.18;;;13.80;99.90;;;;;;5491151;26;19998;-73
2024/04/12 02:14:14;;;;;;;27.25;17.42;;;13.90;99.90;;;;;;5459082;26;19998;-73
2024/04/12 02:16:42;;;;;;;27.75;18.73;;;13.90;99.90;;;;;;5491405;26;19998;-73
2024/04/12 02:19:15;;;;;;;17.08;12.07;;;13.90;99.90;;;;;;5489189;26;19998;-73
2024/04/12 02:21:42;;;;;;;23.45;13.73;;;13.80;99.90;;;;;;5491116;26;20450;-72
2024/04/12 02:24:09;;;;;;;24.52;16.38;;;13.90;99.90;;;;;;5490740;26;19998;-73
2024/04/12 02:26:37;;;;;;;23.83;15.27;;;13.90;99.90;;;;;;5491160;26;20010;-73
2024/04/12 02:29:04;;;;;;;20.23;14.13;;;13.90;99.90;;;;;;5490759;26;20013;-73
2024/04/12 02:31:34;;;;;;;21.67;14.75;;;13.90;99.90;;;;;;5491193;26;19998;-73
2024/04/12 02:34:05;;;;;;;25.02;14.55;;;13.90;99.90;;;;;;5488947;26;20345;-73
2024/04/12 02:36:32;;;;;;;20.90;13.02;;;13.90;99.90;;;;;;5490174;26;19998;-73
2024/04/12 02:39:04;;;;;;;24.08;15.95;;;13.90;99.90;;;;;;5489634;26;20005;-73
2024/04/12 02:41:37;;;;;;;20.90;13.60;;;13.90;99.90;;;;;;5491234;26;20385;-73
2024/04/12 02:44:06;;;;;;;18.55;12.20;;;13.90;99.90;;;;;;5489028;26;20459;-73
2024/04/12 02:46:33;;;;;;;24.48;13.43;;;14.00;99.90;;;;;;5491289;26;20514;-73
2024/04/12 02:49:06;;;;;;;21.40;13.68;;;14.00;99.90;;;;;;5489046;26;19998;-73
2024/04/12 02:51:33;;;;;;;22.98;15.63;;;14.00;99.90;;;;;;5490730;26;20068;-73
2024/04/12 02:54:00;;;;;;;20.77;13.30;;;14.00;99.90;;;;;;5490827;26;19998;-73
2024/04/12 02:56:31;;;;;;;21.38;13.55;;;14.00;99.90;;;;;;5490423;26;20009;-73
2024/04/12 02:58:58;;;;;;;;;;;14.00;99.90;;;;;;5491296;26;20002;-73
2024/04/12 03:01:26;;;;;;;15.25;11.15;;;14.00;99.90;;;;;;5494519;26;19936;-73
2024/04/12 03:03:55;;;;;;;15.68;10.30;;;14.00;99.90;;;;;;5525416;26;20461;-73
2024/04/12 03:06:25;;;;;;;18.48;11.27;;;14.00;99.90;;;;;;5523202;25;19998;-73
2024/04/12 03:08:54;;;;;;;18.23;10.85;;;14.00;99.90;;;;;;5527236;25;20077;-73
2024/04/12 03:11:28;;;;;;;26.38;17.83;;;14.10;99.90;;;;;;5527503;25;20004;-73
2024/04/12 03:14:03;;;;;;;21.30;12.63;;;14.00;99.90;;;;;;5525916;26;20003;-73
2024/04/12 03:16:31;;;;;;;17.25;10.85;;;14.10;99.90;;;;;;5525604;26;20024;-73
2024/04/12 03:18:59;;;;;;;18.17;10.55;;;14.10;99.90;;;;;;5494822;26;20004;-73
2024/04/12 03:21:26;;;;;;;18.35;12.27;;;14.10;99.90;;;;;;5525323;26;20005;-73
2024/04/12 03:23:57;;;;;;;24.30;16.25;;;14.10;99.90;;;;;;5525512;26;19993;-73
2024/04/12 03:26:24;;;;;;;19.10;13.27;;;14.10;99.90;;;;;;5525558;26;20442;-73
2024/04/12 03:28:58;;;;;;;26.88;16.20;;;14.10;99.90;;;;;;5525053;26;20012;-73
2024/04/12 03:31:26;;;;;;;21.10;12.35;;;14.10;99.90;;;;;;5526794;25;19998;-73
2024/04/12 03:33:55;;;;;;;17.80;12.57;;;14.00;99.90;;;;;;5527003;26;20066;-73
2024/04/12 03:44:48;;;;;;;18.88;13.10;;;14.00;99.90;;;;;;5501981;26;19997;-73
2024/04/12 03:47:15;;;;;;;19.67;13.35;;;14.00;99.90;;;;;;5524274;26;19998;-73
2024/04/12 03:49:43;;;;;;;20.67;14.38;;;14.00;99.90;;;;;;5527209;26;20005;-73
2024/04/12 03:52:12;;;;;;;18.48;13.95;;;14.00;99.90;;;;;;5525271;26;20005;-73
2024/04/12 03:54:45;;;;;;;21.85;15.13;;;14.00;99.90;;;;;;5525181;26;19993;-73
2024/04/12 03:57:13;;;;;;;19.08;11.63;;;14.00;99.90;;;;;;5525123;26;20008;-73
2024/04/12 03:59:43;;;;;;;17.75;12.23;;;14.00;99.90;;;;;;5527053;25;20033;-73
2024/04/12 04:02:13;;;;;;;19.05;14.25;;;14.00;99.90;;;;;;5495910;26;20029;-73
2024/04/12 04:04:45;;;;;;;19.38;13.52;;;14.00;99.90;;;;;;5526906;25;20449;-73
2024/04/12 04:07:16;;;;;;;22.80;14.20;;;14.00;99.90;;;;;;5494415;26;20030;-73
2024/04/12 04:09:44;;;;;;;21.17;15.63;;;14.00;99.90;;;;;;5526957;25;20016;-73
2024/04/12 04:12:15;;;;;;;20.50;15.35;;;14.00;99.90;;;;;;5524542;26;20399;-73
2024/04/12 04:14:49;;;;;;;23.15;14.45;;;13.90;99.90;;;;;;5526497;26;20519;-73
2024/04/12 04:17:29;;;;;;;18.42;12.00;;;14.00;99.90;;;;;;5494179;26;20005;-73
2024/04/12 04:19:57;;;;;;;18.30;12.68;;;13.90;99.90;;;;;;5497266;26;20006;-73
2024/04/12 04:24:52;;;;;;;18.58;12.32;;;13.80;99.90;;;;;;5526305;25;20324;-73
2024/04/12 04:27:21;;;;;;;20.45;15.77;;;13.80;99.90;;;;;;5526012;25;19993;-73
2024/04/12 04:29:52;;;;;;;17.08;14.40;;;13.80;99.90;;;;;;5526347;25;20327;-73
2024/04/12 04:32:22;;;;;;;15.45;11.15;;;13.80;99.90;;;;;;5526293;25;20005;-73
2024/04/12 04:34:54;;;;;;;17.15;11.52;;;13.80;99.90;;;;;;5524585;26;19998;-73
2024/04/12 04:37:22;;;;;;;10.57;8.52;;;13.80;99.90;;;;;;5524501;26;20009;-73
2024/04/12 04:39:53;;;;;;;12.40;9.30;;;13.80;99.90;;;;;;5524690;26;20034;-73
2024/04/12 04:42:23;;;;;;;17.25;13.15;;;13.80;99.90;;;;;;5493613;26;20004;-73
2024/04/12 04:44:50;;;;;;;12.13;9.35;;;13.90;99.90;;;;;;5525913;25;20012;-73
2024/04/12 04:47:17;;;;;;;12.77;8.88;;;13.90;99.90;;;;;;5525733;26;20005;-73
2024/04/12 04:49:44;;;;;;;11.80;8.80;;;13.80;99.90;;;;;;5524128;26;20001;-73
2024/04/12 04:52:11;;;;;;;10.40;8.45;;;13.80;99.90;;;;;;5524053;26;20008;-73
2024/04/12 04:54:41;;;;;;;9.82;7.32;;;13.90;99.90;;;;;;5525284;26;19997;-73
2024/04/12 04:57:08;;;;;;;7.28;5.60;;;13.80;99.90;;;;;;5525783;25;20005;-73
2024/04/12 04:59:35;;;;;;;9.27;6.95;;;13.80;99.90;;;;;;5524287;26;20519;-73
2024/04/12 05:02:02;;;;;;;10.90;6.72;;;13.80;99.90;;;;;;5498782;25;20013;-73
2024/04/12 05:04:32;;;;;;;8.13;7.32;;;13.80;99.90;;;;;;5499056;26;20402;-73
2024/04/12 05:06:59;;;;;;;8.15;6.78;;;13.80;99.90;;;;;;5507640;26;20431;-73
2024/04/12 05:09:32;;;;;;;9.43;6.20;;;13.80;99.90;;;;;;5515111;26;20036;-73
2024/04/12 05:12:00;;;;;;;8.55;6.78;;;13.80;99.90;;;;;;5523638;26;20060;-73
2024/04/12 05:17:07;;;;;;;7.63;5.95;;;13.80;99.90;;;;;;5523668;26;20545;-73
2024/04/12 05:19:43;;;;;;;9.80;8.50;;;13.80;99.90;;;;;;5494038;26;20334;-73
2024/04/12 05:22:11;;;;;;;9.80;6.68;;;13.70;99.90;;;;;;5523808;26;20442;-73
2024/04/12 05:24:39;;;;;;;12.18;8.77;;;13.70;99.90;;;;;;5522866;26;20330;-73
2024/04/12 05:27:11;;;;;;;11.57;10.35;;;13.70;99.90;;;;;;5523318;26;19997;-73
2024/04/12 05:29:40;;;;;;;10.35;7.95;;;13.60;99.90;;;;;;5524924;25;20017;-73
2024/04/12 05:32:09;;;;;;;13.73;10.13;;;13.60;99.90;;;;;;5523448;26;20006;-73
2024/04/12 05:34:37;;;;;;;11.38;6.72;;;13.60;99.90;;;;;;5524750;25;20446;-73
2024/04/12 05:37:04;;;;;;;10.30;6.70;;;13.60;99.90;;;;;;5523389;26;20002;-73
2024/04/12 05:39:35;;;;;;;10.13;7.95;;;13.60;99.90;;;;;;5524711;26;20012;-73
2024/04/12 05:42:07;;;;;;;7.68;6.07;;;13.50;99.90;;;;;;5524990;25;20001;-73
2024/04/12 05:44:35;;;;;;;8.82;6.47;;;13.60;99.90;;;;;;5493124;26;20001;-73
2024/04/12 05:47:09;;;;;;;10.80;7.18;;;13.60;99.90;;;;;;5525165;25;20005;-73
2024/04/12 05:49:37;;;;;;;11.88;8.70;;;13.60;99.90;;;;;;5523051;26;20006;-73
2024/04/12 05:52:06;;;;;;;10.10;7.43;;;13.60;99.90;;;;;;5522867;25;20439;-73
2024/04/12 05:54:44;;;;;;;8.73;5.68;;;13.60;99.90;;;;;;5524351;25;20073;-73
2024/04/12 05:57:11;;;;;;;;;;;13.60;99.90;;;;;;5495673;26;20384;-73
2024/04/12 05:59:42;;;;;;;6.43;5.43;;;13.60;99.90;;;;;;5522786;26;19991;-74
2024/04/12 06:02:16;;;;;;;8.88;6.63;;;13.60;99.90;;;;;;5504605;25;20002;-73
2024/04/12 06:04:47;;;;;;;11.90;8.85;;;13.60;99.90;;;;;;5484447;26;20006;-73
2024/04/12 06:07:14;;;;;;;;;;;13.60;99.90;;;;;;5486051;26;19998;-73
2024/04/12 06:09:41;;;;;;;7.82;6.50;;;13.60;99.90;;;;;;5485342;26;19975;-73
2024/04/12 06:12:09;;;;;;;6.60;4.32;;;13.70;99.90;;;;;;5489234;26;20013;-73
2024/04/12 06:14:38;;;;;;;7.25;6.55;;;13.70;99.90;;;;;;5490535;26;20053;-73
2024/04/12 06:17:08;;;;;;;10.05;7.07;;;13.80;99.90;;;;;;5459657;26;20064;-73
2024/04/12 06:19:38;;;;;;;8.55;5.00;;;13.80;99.90;;;;;;5491036;26;20002;-72
2024/04/12 06:22:13;;;;;;;7.72;5.95;;;13.90;99.90;;;;;;5489410;26;20403;-73
2024/04/12 06:24:48;;;;;;;6.75;4.88;;;13.90;99.90;;;;;;5488820;26;20051;-73
2024/04/12 06:27:29;;;;;;;5.88;4.35;;;14.00;99.90;;;;;;5489825;26;19994;-73
2024/04/12 06:30:00;;;;;;;8.38;7.57;;;13.90;99.90;;;;;;5489316;26;19994;-74
2024/04/12 06:32:27;;;;;;;8.35;5.00;;;14.00;99.90;;;;;;5489637;26;19998;-73
2024/04/12 06:34:55;;;;;;;7.75;7.00;;;13.90;99.90;;;;;;5489053;26;20013;-73
2024/04/12 06:37:24;;;;;;;7.70;6.65;;;13.90;99.90;;;;;;5491215;26;20034;-73
2024/04/12 06:39:55;;;;;;;8.18;5.22;;;13.90;99.90;;;;;;5488877;26;20397;-73
2024/04/12 06:42:22;;;;;;;8.75;7.85;;;13.90;99.90;;;;;;5460324;26;20010;-73
2024/04/12 06:44:50;;;;;;;5.95;5.40;;;13.80;99.90;;;;;;5488632;26;20006;-73
2024/04/12 06:47:18;;;;;;;7.15;5.90;;;13.90;99.90;;;;;;5489083;26;20009;-73
2024/04/12 06:49:45;;;;;;;6.75;5.97;;;13.90;99.90;;;;;;5488475;26;20013;-73
2024/04/12 06:52:14;;;;;;;8.32;5.10;;;13.90;99.90;;;;;;5458689;26;19998;-73
2024/04/12 06:54:42;;;;;;;5.93;5.00;;;13.90;99.90;;;;;;5490414;26;20001;-73
2024/04/12 06:57:21;;;;;;;6.07;5.10;;;14.00;99.90;;;;;;5490550;26;19998;-73
2024/04/12 06:59:58;;;;;;;5.40;4.20;;;13.90;99.90;;;;;;5460350;26;20020;-73
2024/04/12 07:02:26;;;;;;;6.50;5.97;;;13.90;99.90;;;;;;5490400;26;20069;-73
2024/04/12 07:04:54;;;;;;;7.53;5.82;;;13.90;99.90;;;;;;5488250;26;19998;-73
2024/04/12 07:07:23;;;;;;;10.20;9.10;;;13.90;99.90;;;;;;5489001;26;20005;-73
2024/04/12 07:10:09;;;;;;;6.07;4.88;;;13.90;99.90;;;;;;5458275;26;20393;-73
2024/04/12 07:12:37;;;;;;;5.93;4.38;;;14.00;99.90;;;;;;5458683;26;19998;-73
2024/04/12 07:15:09;;;;;;;5.60;4.22;;;14.00;99.90;;;;;;5490553;26;20392;-73
2024/04/12 07:17:39;;;;;;;7.25;5.28;;;14.10;99.90;;;;;;5488938;26;20006;-73
2024/04/12 07:20:13;;;;;;;6.85;4.63;;;14.10;99.90;;;;;;5488579;26;20009;-73
2024/04/12 07:22:40;;;;;;;11.27;8.80;;;14.20;99.90;;;;;;5487334;26;20074;-73
2024/04/12 07:25:09;;;;;;;7.75;6.63;;;14.20;99.90;;;;;;5488238;26;20420;-73
2024/04/12 07:27:41;;;;;;;5.75;4.88;;;14.20;99.90;;;;;;5488269;26;20431;-73
2024/04/12 07:30:08;;;;;;;7.95;4.05;;;14.30;99.90;;;;;;5490086;26;20006;-73
2024/04/12 07:32:36;;;;;;;6.93;5.85;;;14.40;99.90;;;;;;5489810;26;20009;-73
2024/04/12 07:35:22;;;;;;;6.50;5.45;;;14.50;99.90;;;;;;5487849;26;20046;-73
2024/04/12 07:37:54;;;;;;;7.07;6.22;;;14.60;99.90;;;;;;5457735;26;19998;-73
2024/04/12 07:40:24;;;;;;;9.32;5.57;;;14.70;99.90;;;;;;5488237;26;19998;-73
2024/04/12 07:42:52;;;;;;;6.65;5.43;;;14.80;99.90;;;;;;5457579;26;19998;-73
2024/04/12 07:45:23;;;;;;;7.45;6.65;;;14.90;99.90;;;;;;5490156;26;19998;-73
2024/04/12 07:48:11;;;;;;;7.03;6.07;;;15.00;99.90;;;;;;5489806;26;20005;-73
2024/04/12 07:50:41;;;;;;;12.05;9.00;;;15.10;99.90;;;;;;5488268;26;20022;-74
2024/04/12 07:53:15;;;;;;;6.63;4.97;;;15.20;99.90;;;;;;5489618;26;19998;-74
2024/04/12 07:55:44;;;;;;;8.02;7.22;;;15.30;99.90;;;;;;5490114;26;20002;-75
2024/04/12 07:58:12;;;;;;;9.23;7.18;;;15.30;99.90;;;;;;5489601;26;20006;-75
2024/04/12 08:00:46;;;;;;;8.98;8.07;;;15.40;99.90;;;;;;5487726;26;20013;-75
2024/04/12 08:03:17;;;;;;;8.70;6.78;;;15.50;99.90;;;;;;5457578;26;19998;-75
2024/04/12 08:06:03;;;;;;;7.20;5.65;;;15.80;99.90;;;;;;5489493;26;20327;-75
2024/04/12 08:08:32;;;;;;;6.55;5.85;;;16.00;99.90;;;;;;5489655;26;20344;-75
2024/04/12 08:11:11;;;;;;;8.07;7.28;;;16.10;99.90;;;;;;5487366;26;20074;-75
2024/04/12 08:13:50;;;;;;;8.38;7.55;;;16.20;99.90;;;;;;5487565;26;20091;-75
2024/04/12 08:16:23;;;;;;;7.95;6.63;;;16.10;99.90;;;;;;5489524;26;20440;-75
2024/04/12 08:18:54;;;;;;;5.45;4.93;;;16.20;99.90;;;;;;5489149;26;20010;-75
2024/04/12 08:21:27;;;;;;;9.50;8.57;;;16.20;99.90;;;;;;5487397;26;20006;-75
2024/04/12 08:23:56;;;;;;;6.07;5.38;;;16.30;99.90;;;;;;5489377;26;19998;-75
2024/04/12 08:26:27;;;;;;;6.78;5.97;;;16.30;99.90;;;;;;5489614;26;20026;-75
2024/04/12 08:28:54;;;;;;;6.22;5.63;;;16.30;99.90;;;;;;5487783;26;19994;-75
2024/04/12 08:31:23;;;;;;;5.32;4.80;;;16.40;99.90;;;;;;5427443;26;20013;-75
2024/04/12 08:33:53;;;;;;;6.50;5.90;;;16.50;99.90;;;;;;5485672;26;20009;-75
2024/04/12 08:36:24;;;;;;;6.03;4.88;;;16.50;99.90;;;;;;5487544;26;19998;-75
2024/04/12 08:38:54;;;;;;;6.60;6.00;;;16.60;99.90;;;;;;5458453;26;20045;-75
2024/04/12 08:41:24;;;;;;;10.60;9.50;;;16.60;99.90;;;;;;5458035;26;20013;-75
2024/04/12 08:43:58;;;;;;;5.68;5.10;;;16.60;99.90;;;;;;5486842;26;20474;-75
2024/04/12 08:46:33;;;;;;;7.72;6.72;;;16.60;99.90;;;;;;5489199;26;19998;-75
2024/04/12 08:49:03;;;;;;;8.60;5.40;;;16.70;99.90;;;;;;5486678;26;19998;-75
2024/04/12 08:51:34;;;;;;;6.22;4.00;;;16.80;99.90;;;;;;5486099;26;19998;-75
2024/04/12 08:54:05;;;;;;;5.88;5.10;;;16.90;99.90;;;;;;5455683;26;20079;-75
2024/04/12 08:56:32;;;;;;;6.45;5.75;;;17.10;99.90;;;;;;5486807;26;20070;-75
2024/04/12 08:59:05;;;;;;;6.32;5.72;;;17.30;99.90;;;;;;5488336;26;20002;-75
2024/04/12 09:01:40;;;;;;;7.68;6.55;;;17.80;99.90;;;;;;5458082;26;20503;-75
2024/04/12 09:04:14;;;;;;;9.70;8.80;;;18.30;99.60;;;;;;5456598;26;20436;-75
2024/04/12 09:06:48;;;;;;;6.95;6.32;;;18.70;98.20;;;;;;5488875;26;20339;-75
2024/04/12 09:09:17;;;;;;;8.38;5.93;;;18.80;97.40;;;;;;5488555;26;20022;-75
2024/04/12 09:11:45;;;;;;;6.18;5.57;;;19.10;97.30;;;;;;5488520;26;20010;-75
2024/04/12 09:14:20;;;;;;;4.85;4.43;;;19.40;95.90;;;;;;5486418;26;19990;-75
2024/04/12 09:16:53;;;;;;;5.95;4.38;;;19.50;95.10;;;;;;5488741;26;20005;-75
2024/04/12 09:19:24;;;;;;;6.03;3.75;;;19.40;95.30;;;;;;5488465;26;20009;-75
2024/04/12 09:21:58;;;;;;;7.28;4.38;;;19.50;95.10;;;;;;5486353;26;20013;-75
2024/04/12 09:24:31;;;;;;;7.68;6.82;;;19.90;94.30;;;;;;5458190;26;20017;-75
2024/04/12 09:27:07;;;;;;;5.22;4.22;;;20.40;92.80;;;;;;5486173;26;19998;-75
2024/04/12 09:29:43;;;;;;;5.30;4.80;;;20.80;93.40;;;;;;5486168;26;20012;-76
2024/04/12 09:34:59;;;;;;;7.05;6.43;;;20.70;91.90;;;;;;5486125;26;20030;-75
2024/04/12 09:42:50;;;;;;;6.45;4.78;;;20.70;91.30;;;;;;5487940;26;20009;-76
2024/04/12 09:45:21;;;;;;;5.32;3.95;;;20.70;91.70;;;;;;5460883;26;20005;-76
2024/04/12 10:38:05;;;;;;;3.53;2.85;;;20.10;84.20;;;;;;5489190;26;20013;-75
2024/04/12 10:40:40;;;;;;;6.50;3.30;;;20.70;84.80;;;;;;5491166;26;20002;-75
2024/04/12 10:43:13;;;;;;;2.85;2.58;;;21.10;82.40;;;;;;5488837;26;19998;-75
2024/04/12 10:45:48;;;;;;;4.72;3.13;;;21.30;79.20;;;;;;5489015;26;19998;-75
2024/04/12 10:48:18;;;;;;;2.92;2.65;;;21.40;79.10;;;;;;5490557;26;20012;-75
2024/04/12 10:50:49;;;;;;;;;;;21.60;77.60;;;;;;5459730;26;20025;-75
2024/04/12 10:53:17;;;;;;;5.60;3.70;;;21.50;75.60;;;;;;5490704;26;19923;-75
2024/04/12 10:55:44;;;;;;;3.63;2.22;;;21.70;74.50;;;;;;5459145;26;20013;-75
2024/04/12 10:58:14;;;;;;;5.43;3.45;;;21.80;75.10;;;;;;5489288;26;19998;-75
2024/04/12 11:00:48;;;;;;;5.20;3.65;;;22.10;74.00;;;;;;5491009;26;20006;-75
2024/04/12 11:03:24;;;;;;;3.50;3.20;;;22.00;73.90;;;;;;5490693;26;20038;-75
2024/04/12 11:06:02;;;;;;;;;;;21.70;74.10;;;;;;5491523;26;20004;-75
2024/04/12 11:08:31;;;;;;;3.42;2.38;;;21.80;75.10;;;;;;5490708;26;19927;-75
2024/04/12 11:11:15;;;;;;;5.05;3.95;;;21.80;74.90;;;;;;5456807;26;20004;-76
2024/04/12 11:13:46;;;;;;;4.47;3.45;;;21.80;75.30;;;;;;5489260;26;20001;-75
2024/04/12 11:32:55;;;;;;;3.40;2.28;;;22.20;74.50;;;;;;5488308;26;20006;-75
2024/04/12 11:35:28;;;;;;;4.75;2.78;;;22.50;74.80;;;;;;5487963;26;19998;-76
2024/04/12 11:37:55;;;;;;;2.83;2.55;;;22.90;74.80;;;;;;5488162;26;20454;-75
2024/04/12 11:40:24;;;;;;;3.17;2.40;;;23.00;73.70;;;;;;5489902;26;20005;-76
2024/04/12 11:42:56;;;;;;;2.25;1.95;;;23.00;72.80;;;;;;5488164;26;20341;-76
2024/04/12 11:45:30;;;;;;;5.07;2.75;;;23.00;73.70;;;;;;5490230;26;20005;-76
2024/04/12 11:47:58;;;;;;;5.32;2.70;;;23.10;74.30;;;;;;5490104;26;19998;-75
2024/04/12 11:50:26;;;;;;;5.20;3.00;;;23.20;74.30;;;;;;5489605;26;20005;-75
2024/04/12 11:52:55;;;;;;;2.63;2.13;;;23.10;73.70;;;;;;5489630;26;20018;-75
2024/04/12 11:55:24;;;;;;;7.80;2.10;;;22.70;74.00;;;;;;5489614;26;20005;-76
2024/04/12 11:57:54;;;;;;;3.88;2.42;;;22.70;75.30;;;;;;5487999;26;19998;-75
2024/04/12 12:00:21;;;;;;;3.47;2.08;;;22.50;75.70;;;;;;5487830;26;20010;-75
2024/04/12 12:02:52;;;;;;;4.05;1.83;;;22.60;75.80;;;;;;5489733;26;20339;-75
2024/04/12 12:05:21;;;;;;;2.28;2.08;;;22.80;75.90;;;;;;5487441;26;20471;-75
2024/04/12 12:07:48;;;;;;;4.60;3.22;;;22.80;74.70;;;;;;5489601;26;20021;-75
2024/04/12 12:10:15;;;;;;;4.82;3.72;;;22.70;75.00;;;;;;5487791;26;20082;-75
2024/04/12 12:12:43;;;;;;;5.65;2.40;;;22.40;74.40;;;;;;5487867;26;20008;-75
2024/04/12 12:15:14;;;;;;;4.18;2.50;;;22.20;75.70;;;;;;5488141;26;19998;-75
2024/04/12 12:17:41;;;;;;;3.25;2.63;;;22.10;75.70;;;;;;5489102;26;19998;-75
2024/04/12 12:20:08;;;;;;;3.80;2.40;;;22.20;76.20;;;;;;5457522;26;20001;-75
2024/04/12 12:22:38;;;;;;;2.97;2.65;;;22.30;75.50;;;;;;5487596;26;19994;-75
2024/04/12 12:25:07;;;;;;;5.35;1.77;;;22.30;75.10;;;;;;5487874;26;19994;-75
2024/04/12 12:27:35;;;;;;;2.63;1.25;;;22.50;76.20;;;;;;5488886;26;19998;-75
2024/04/12 12:30:13;;;;;;;2.50;1.35;;;22.80;72.90;;;;;;5487666;26;20327;-75
2024/04/12 12:32:44;;;;;;;2.85;1.10;;;22.90;71.70;;;;;;5487773;26;19994;-75
2024/04/12 12:35:21;;;;;;;1.55;1.15;;;23.10;72.20;;;;;;5489596;26;19994;-75
2024/04/12 12:37:50;;;;;;;2.28;0.90;;;23.20;70.90;;;;;;5487289;26;19998;-75
2024/04/12 12:40:21;;;;;;;1.08;0.90;;;22.90;67.00;;;;;;5487480;26;20467;-75
2024/04/12 12:42:51;;;;;;;3.20;1.20;;;22.90;67.40;;;;;;5487572;26;20010;-75
2024/04/12 12:45:19;;;;;;;1.27;0.57;;;22.70;63.90;;;;;;5487244;26;20002;-75
2024/04/12 12:47:49;;;;;;;1.23;1.10;;;22.60;65.10;;;;;;5487112;26;20002;-75
2024/04/12 12:50:19;;;;;;;1.80;1.30;;;22.60;66.10;;;;;;5489046;26;20021;-75
2024/04/12 12:52:51;;;;;;;0.57;0.57;;;22.70;64.30;;;;;;5457444;26;20002;-75
2024/04/12 12:55:24;;;;;;;4.82;1.05;;;22.80;65.50;;;;;;5488895;26;19999;-75
2024/04/12 12:58:09;;;;;;;2.15;1.20;;;23.00;65.30;;;;;;5488909;26;20010;-74
2024/04/12 13:00:44;;;;;;;3.72;1.20;;;23.00;63.90;;;;;;5487121;26;20439;-74
2024/04/12 13:03:12;;;;;;;1.88;0.82;;;23.30;64.20;;;;;;5487367;26;20430;-75
2024/04/12 13:05:39;;;;;;;1.60;1.00;;;23.30;61.60;;;;;;5486736;26;19994;-74
2024/04/12 13:08:07;;;;;;;1.00;0.80;;;23.40;63.10;;;;;;5486738;26;20030;-73
2024/04/12 13:10:34;;;;;;;0.80;0.73;;;23.70;62.50;;;;;;5456896;26;20006;-73
2024/04/12 13:13:04;;;;;;;2.15;0.70;;;23.90;60.60;;;;;;5487040;26;19994;-73
2024/04/12 13:15:32;;;;;;;;;;;23.70;60.50;;;;;;5487321;26;20033;-73
2024/04/12 13:17:59;;;;;;;3.05;1.10;;;23.40;57.70;;;;;;5486669;26;19936;-73
2024/04/12 13:20:26;;;;;;;2.22;1.17;;;23.00;59.70;;;;;;5487393;26;20079;-74
2024/04/12 13:22:53;;;;;;;1.45;0.93;;;23.10;60.20;;;;;;5490091;26;20006;-73
2024/04/12 13:25:20;;;;;;;1.45;1.25;;;23.10;59.00;;;;;;5490209;26;19998;-73
2024/04/12 13:27:48;;;;;;;1.63;0.60;;;23.20;57.90;;;;;;5489782;26;20085;-73
2024/04/12 13:30:15;;;;;;;1.65;1.00;;;23.10;58.80;;;;;;5491863;26;20002;-73
2024/04/12 13:32:48;;;;;;;1.23;1.02;;;23.00;58.00;;;;;;5491523;26;20358;-73
2024/04/12 13:35:16;;;;;;;1.67;0.85;;;22.70;59.60;;;;;;5459597;26;19998;-74
2024/04/12 13:37:44;;;;;;;2.85;1.10;;;22.80;59.60;;;;;;5491569;26;20063;-74
2024/04/12 13:40:17;;;;;;;2.20;0.98;;;22.80;60.00;;;;;;5490285;26;20009;-74
2024/04/12 13:42:47;;;;;;;4.13;1.35;;;22.80;61.00;;;;;;5490092;26;20010;-74
2024/04/12 13:51:02;;;;;;;1.60;1.40;;;23.50;61.60;;;;;;5490200;26;20357;-74
2024/04/12 13:53:32;;;;;;;4.05;1.27;;;23.50;62.60;;;;;;5460258;26;20008;-74
2024/04/12 13:58:58;;;;;;;3.22;1.10;;;23.50;63.80;;;;;;5489498;26;20440;-74
2024/04/12 14:01:28;;;;;;;1.73;1.08;;;23.20;64.20;;;;;;5491634;26;20026;-74
2024/04/12 14:04:02;;;;;;;1.98;1.20;;;23.50;64.10;;;;;;5489426;26;20078;-74
2024/04/12 14:06:36;;;;;;;1.58;1.05;;;23.90;63.30;;;;;;5489539;26;20011;-74
2024/04/12 14:09:08;;;;;;;2.15;1.10;;;24.30;62.40;;;;;;5459675;26;20468;-74
2024/04/12 14:11:36;;;;;;;2.03;1.23;;;24.50;62.70;;;;;;5489409;26;19998;-74
2024/04/12 14:14:03;;;;;;;1.42;1.15;;;24.30;62.80;;;;;;5491262;26;20400;-74
2024/04/12 14:16:41;;;;;;;4.32;1.33;;;24.10;63.30;;;;;;5459262;26;19998;-74
2024/04/12 14:19:18;;;;;;;3.70;1.38;;;23.70;63.60;;;;;;5490008;26;20389;-74
2024/04/12 14:21:53;;;;;;;3.47;1.05;;;23.50;64.50;;;;;;5491314;26;20006;-74
2024/04/12 14:27:08;;;;;;;3.47;1.15;;;23.00;65.30;;;;;;5491450;26;20066;-74
2024/04/12 14:29:36;;;;;;;2.70;1.00;;;22.80;66.10;;;;;;5489273;26;20001;-74
2024/04/12 14:32:06;;;;;;;2.45;1.38;;;22.60;66.50;;;;;;5487695;26;20005;-74
2024/04/12 14:34:35;;;;;;;2.80;1.30;;;22.60;65.60;;;;;;5490821;26;19998;-75
2024/04/12 14:37:03;;;;;;;1.83;1.30;;;22.60;66.10;;;;;;5490791;26;19998;-74